createdAt,value
2022-12-16T00:00:15.013Z,57.80
2022-12-16T00:02:42.844Z,57.40
2022-12-16T00:05:09.806Z,55.73
2022-12-16T00:07:36.543Z,54.27
2022-12-16T00:10:05.284Z,59.13
2022-12-16T00:12:32.075Z,51.13
2022-12-16T00:14:59.022Z,55.03
2022-12-16T00:17:25.852Z,60.50
2022-12-16T00:19:52.654Z,53.20
2022-12-16T00:22:19.379Z,54.37
2022-12-16T00:24:49.467Z,51.47
2022-12-16T00:27:17.459Z,53.10
2022-12-16T00:29:44.853Z,54.43
2022-12-16T00:32:13.986Z,54.07
2022-12-16T00:34:40.775Z,54.77
2022-12-16T00:37:07.558Z,52.63
2022-12-16T00:39:34.252Z,56.40
2022-12-16T00:42:00.938Z,53.83
2022-12-16T00:44:28.062Z,51.30
2022-12-16T00:46:55.079Z,55.43
2022-12-16T00:49:21.853Z,56.90
2022-12-16T00:51:49.652Z,52.30
2022-12-16T00:54:19.874Z,52.67
2022-12-16T00:56:46.706Z,62.57
2022-12-16T00:59:15.086Z,54.00
2022-12-16T01:01:41.987Z,52.77
2022-12-16T01:04:08.969Z,56.67
2022-12-16T01:06:35.824Z,54.73
2022-12-16T01:09:02.512Z,50.07
2022-12-16T01:11:29.279Z,49.37
2022-12-16T01:13:56.334Z,52.77
2022-12-16T01:16:23.102Z,51.50
2022-12-16T01:18:49.919Z,63.67
2022-12-16T01:21:19.513Z,51.50
2022-12-16T01:23:48.045Z,53.63
2022-12-16T01:26:18.018Z,50.90
2022-12-16T01:28:47.713Z,53.83
2022-12-16T01:31:17.203Z,53.53
2022-12-16T01:33:47.089Z,57.43
2022-12-16T01:36:13.851Z,52.07
2022-12-16T01:38:42.925Z,53.03
2022-12-16T01:41:10.502Z,55.10
2022-12-16T01:43:39.126Z,52.00
2022-12-16T01:46:09.132Z,48.80
2022-12-16T01:48:41.821Z,53.17
2022-12-16T01:51:16.014Z,60.97
2022-12-16T01:53:44.729Z,49.17
2022-12-16T01:56:16.214Z,48.10
2022-12-16T01:58:44.055Z,47.53
2022-12-16T02:01:11.133Z,53.80
2022-12-16T02:03:39.857Z,56.30
2022-12-16T02:06:07.417Z,49.53
2022-12-16T02:08:37.539Z,53.73
2022-12-16T02:11:22.997Z,51.03
2022-12-16T02:14:21.040Z,54.87
2022-12-16T02:17:27.331Z,52.03
2022-12-16T02:20:19.044Z,52.90
2022-12-16T02:23:10.901Z,56.87
2022-12-16T02:26:04.860Z,50.97
2022-12-16T02:28:58.778Z,56.43
2022-12-16T02:31:41.811Z,52.43
2022-12-16T02:34:41.678Z,50.03
2022-12-16T02:37:36.217Z,56.40
2022-12-16T02:40:37.528Z,51.47
2022-12-16T02:43:11.217Z,53.83
2022-12-16T02:45:38.872Z,52.60
2022-12-16T02:48:08.226Z,50.37
2022-12-16T02:50:45.217Z,52.07
2022-12-16T02:53:12.992Z,51.43
2022-12-16T02:55:48.725Z,55.30
2022-12-16T02:58:38.527Z,52.60
2022-12-16T03:02:00.004Z,49.37
2022-12-16T03:04:49.583Z,54.33
2022-12-16T03:07:18.683Z,58.63
2022-12-16T03:09:47.302Z,53.53
2022-12-16T03:12:16.692Z,49.77
2022-12-16T03:14:46.600Z,53.23
2022-12-16T03:17:15.694Z,51.90
2022-12-16T03:19:47.546Z,55.90
2022-12-16T03:22:29.479Z,51.10
2022-12-16T03:24:56.677Z,51.40
2022-12-16T03:27:46.229Z,54.87
2022-12-16T03:30:35.202Z,53.23
2022-12-16T03:33:27.887Z,55.70
2022-12-16T03:36:02.401Z,54.80
2022-12-16T03:38:30.831Z,49.40
2022-12-16T03:40:59.895Z,50.67
2022-12-16T03:43:27.335Z,47.73
2022-12-16T03:45:58.122Z,53.67
2022-12-16T03:48:26.389Z,59.13
2022-12-16T03:50:56.495Z,53.40
2022-12-16T03:53:26.421Z,53.90
2022-12-16T03:55:54.549Z,66.40
2022-12-16T03:58:21.816Z,56.97
2022-12-16T04:00:48.763Z,58.13
2022-12-16T04:03:15.709Z,49.80
2022-12-16T04:05:42.578Z,48.27
2022-12-16T04:08:09.340Z,65.10
2022-12-16T04:10:54.652Z,50.40
2022-12-16T04:13:40.286Z,52.43
2022-12-16T04:16:33.121Z,52.07
2022-12-16T04:19:19.229Z,53.23
2022-12-16T04:22:18.450Z,53.20
2022-12-16T04:24:45.246Z,60.13
2022-12-16T04:27:27.880Z,54.73
2022-12-16T04:30:15.698Z,58.67
2022-12-16T04:33:01.139Z,53.80
2022-12-16T04:35:46.642Z,54.90
2022-12-16T04:38:32.149Z,59.93
2022-12-16T04:41:17.698Z,58.33
2022-12-16T04:44:03.209Z,51.90
2022-12-16T04:46:48.829Z,51.00
2022-12-16T04:49:34.443Z,53.40
2022-12-16T04:52:19.899Z,50.23
2022-12-16T04:55:16.286Z,53.60
2022-12-16T04:58:07.446Z,53.10
2022-12-16T05:00:52.916Z,53.50
2022-12-16T05:03:38.073Z,48.33
2022-12-16T05:06:24.021Z,50.07
2022-12-16T05:09:09.478Z,46.83
2022-12-16T05:11:55.171Z,48.40
2022-12-16T05:14:42.699Z,52.20
2022-12-16T05:17:28.399Z,45.70
2022-12-16T05:20:13.921Z,44.23
2022-12-16T05:22:59.560Z,45.33
2022-12-16T05:25:45.131Z,50.33
2022-12-16T05:28:30.576Z,45.40
2022-12-16T05:31:16.020Z,44.60
2022-12-16T05:34:04.368Z,45.13
2022-12-16T05:36:49.702Z,46.43
2022-12-16T05:39:34.833Z,43.47
2022-12-16T05:42:20.248Z,42.17
2022-12-16T05:45:05.278Z,43.73
2022-12-16T05:47:50.698Z,48.60
2022-12-16T05:50:36.129Z,39.17
2022-12-16T05:53:24.318Z,42.27
2022-12-16T05:56:10.106Z,43.93
2022-12-16T05:58:55.344Z,40.53
2022-12-16T06:01:41.025Z,43.40
2022-12-16T06:04:26.701Z,42.17
2022-12-16T06:07:12.640Z,41.07
2022-12-16T06:09:58.078Z,41.17
2022-12-16T06:12:43.304Z,37.30
2022-12-16T06:15:29.263Z,39.53
2022-12-16T06:18:15.045Z,37.80
2022-12-16T06:21:00.329Z,39.80
2022-12-16T06:23:45.869Z,39.53
2022-12-16T06:26:31.442Z,34.37
2022-12-16T06:29:16.949Z,44.50
2022-12-16T06:32:02.298Z,39.13
2022-12-16T06:34:47.661Z,39.13
2022-12-16T06:37:33.051Z,38.03
2022-12-16T06:40:18.286Z,35.07
2022-12-16T06:43:03.617Z,35.57
2022-12-16T06:45:49.323Z,40.23
2022-12-16T06:48:34.691Z,35.97
2022-12-16T06:51:23.469Z,37.93
2022-12-16T06:54:09.183Z,38.10
2022-12-16T06:56:54.657Z,37.13
2022-12-16T06:59:40.153Z,37.43
2022-12-16T07:02:29.790Z,37.03
2022-12-16T07:05:15.391Z,39.00
2022-12-16T07:08:08.816Z,39.30
2022-12-16T07:10:55.293Z,35.10
2022-12-16T07:13:42.314Z,35.47
2022-12-16T07:16:27.619Z,39.67
2022-12-16T07:19:13.840Z,38.20
2022-12-16T07:21:59.098Z,37.67
2022-12-16T07:24:47.442Z,36.53
2022-12-16T07:27:32.911Z,41.53
2022-12-16T07:30:18.422Z,37.47
2022-12-16T07:33:03.816Z,34.53
2022-12-16T07:35:49.471Z,42.87
2022-12-16T07:38:34.852Z,37.30
2022-12-16T07:41:19.979Z,38.13
2022-12-16T07:44:05.456Z,39.30
2022-12-16T07:46:50.785Z,35.27
2022-12-16T07:49:39.675Z,39.33
2022-12-16T07:52:25.268Z,39.13
2022-12-16T07:55:10.762Z,38.33
2022-12-16T07:57:57.729Z,34.87
2022-12-16T08:00:56.728Z,38.00
2022-12-16T08:03:45.217Z,37.90
2022-12-16T08:06:30.692Z,38.53
2022-12-16T08:09:16.413Z,44.57
2022-12-16T08:12:01.796Z,39.87
2022-12-16T08:14:47.503Z,37.90
2022-12-16T08:17:32.739Z,42.87
2022-12-16T08:20:18.396Z,42.43
2022-12-16T08:23:03.616Z,38.53
2022-12-16T08:25:49.388Z,40.67
2022-12-16T08:28:34.771Z,39.60
2022-12-16T08:31:20.292Z,38.70
2022-12-16T08:34:05.881Z,43.30
2022-12-16T08:36:51.586Z,43.13
2022-12-16T08:39:37.178Z,35.13
2022-12-16T08:42:24.932Z,43.23
2022-12-16T08:45:10.345Z,35.83
2022-12-16T08:47:55.856Z,39.27
2022-12-16T08:50:41.653Z,35.40
2022-12-16T08:53:28.179Z,33.17
2022-12-16T08:56:13.692Z,28.40
2022-12-16T08:58:59.320Z,30.33
2022-12-16T09:01:44.817Z,29.37
2022-12-16T09:04:30.176Z,31.93
2022-12-16T09:07:15.806Z,28.97
2022-12-16T09:10:01.124Z,27.13
2022-12-16T09:12:46.833Z,25.07
2022-12-16T09:15:32.234Z,27.23
2022-12-16T09:18:17.694Z,25.63
2022-12-16T09:21:03.576Z,28.77
2022-12-16T09:23:49.101Z,31.67
2022-12-16T09:26:36.227Z,27.60
2022-12-16T09:29:21.760Z,38.33
2022-12-16T09:32:07.185Z,35.67
2022-12-16T09:34:52.578Z,29.87
2022-12-16T09:37:39.772Z,29.60
2022-12-16T09:40:25.504Z,33.43
2022-12-16T09:43:46.311Z,29.47
2022-12-16T09:46:59.199Z,26.07
2022-12-16T09:50:06.749Z,26.33
2022-12-16T09:52:59.396Z,23.77
2022-12-16T09:56:13.909Z,24.97
2022-12-16T09:59:04.026Z,24.97
2022-12-16T10:01:55.388Z,19.30
2022-12-16T10:04:43.099Z,20.33
2022-12-16T10:07:36.412Z,27.93
2022-12-16T10:10:26.219Z,22.90
2022-12-16T10:13:34.378Z,18.60
2022-12-16T10:16:32.828Z,17.97
2022-12-16T10:19:57.255Z,15.33
2022-12-16T10:22:50.992Z,20.93
2022-12-16T10:25:41.514Z,16.57
2022-12-16T10:29:02.346Z,20.83
2022-12-16T10:31:48.581Z,17.00
2022-12-16T10:34:43.106Z,17.80
2022-12-16T10:37:53.476Z,12.50
2022-12-16T10:40:43.702Z,11.90
2022-12-16T10:43:49.698Z,13.17
2022-12-16T10:46:41.636Z,14.17
2022-12-16T10:49:33.908Z,11.83
2022-12-16T10:52:22.411Z,11.77
2022-12-16T10:55:40.938Z,15.67
2022-12-16T10:58:44.309Z,10.77
2022-12-16T11:01:46.829Z,12.53
2022-12-16T11:04:48.587Z,9.10
2022-12-16T11:07:53.835Z,15.17
2022-12-16T11:10:45.290Z,12.00
2022-12-16T11:13:39.064Z,10.17
2022-12-16T11:16:35.389Z,11.37
2022-12-16T11:19:21.609Z,10.77
2022-12-16T11:22:08.320Z,12.63
2022-12-16T11:24:54.425Z,11.13
2022-12-16T11:27:39.824Z,12.63
2022-12-16T11:30:39.749Z,13.33
2022-12-16T11:33:47.711Z,13.37
2022-12-16T11:36:41.260Z,10.90
2022-12-16T11:39:32.463Z,6.20
2022-12-16T11:42:18.648Z,9.40
2022-12-16T11:45:14.010Z,12.03
2022-12-16T11:48:07.803Z,13.13
2022-12-16T11:50:59.551Z,10.90
2022-12-16T11:53:51.421Z,16.27
2022-12-16T11:56:54.662Z,9.60
2022-12-16T11:59:43.924Z,10.10
2022-12-16T12:02:42.041Z,12.33
2022-12-16T12:05:31.785Z,13.33
2022-12-16T12:08:28.292Z,11.20
2022-12-16T12:11:28.666Z,13.27
2022-12-16T12:14:36.593Z,11.30
2022-12-16T12:17:52.912Z,14.67
2022-12-16T12:20:51.690Z,10.47
2022-12-16T12:24:17.861Z,14.07
2022-12-16T12:27:20.615Z,15.77
2022-12-16T12:30:28.704Z,11.87
2022-12-16T12:33:37.869Z,13.57
2022-12-16T12:36:55.590Z,15.37
2022-12-16T12:39:48.628Z,14.50
2022-12-16T12:43:09.298Z,18.93
2022-12-16T12:46:00.560Z,18.03
2022-12-16T12:49:26.872Z,20.20
2022-12-16T12:52:40.186Z,21.20
2022-12-16T12:55:41.985Z,22.73
2022-12-16T12:58:31.077Z,22.17
2022-12-16T13:01:19.118Z,20.90
2022-12-16T13:04:15.344Z,22.13
2022-12-16T13:07:01.000Z,20.63
2022-12-16T13:09:54.819Z,22.63
2022-12-16T13:12:51.406Z,19.73
2022-12-16T13:15:58.309Z,21.40
2022-12-16T13:18:51.069Z,21.47
2022-12-16T13:21:56.137Z,18.73
2022-12-16T13:24:44.239Z,18.73
2022-12-16T13:27:34.138Z,21.37
2022-12-16T13:30:23.497Z,20.17
2022-12-16T13:33:34.698Z,21.73
2022-12-16T13:36:20.626Z,21.43
2022-12-16T13:39:08.730Z,20.07
2022-12-16T13:41:53.912Z,24.27
2022-12-16T13:45:01.190Z,21.10
2022-12-16T13:48:00.095Z,18.47
2022-12-16T13:51:06.447Z,19.80
2022-12-16T13:54:07.818Z,18.60
2022-12-16T13:57:07.412Z,19.97
2022-12-16T14:00:04.116Z,21.27
2022-12-16T14:02:57.079Z,22.73
2022-12-16T14:05:46.463Z,24.00
2022-12-16T14:08:36.497Z,18.97
2022-12-16T14:11:24.909Z,22.13
2022-12-16T14:14:13.238Z,21.03
2022-12-16T14:17:15.001Z,25.63
2022-12-16T14:20:26.518Z,19.00
2022-12-16T14:23:56.326Z,17.77
2022-12-16T14:26:42.885Z,18.70
2022-12-16T14:29:40.952Z,20.70
2022-12-16T14:32:47.455Z,19.77
2022-12-16T14:35:45.246Z,19.93
2022-12-16T14:38:46.886Z,19.70
2022-12-16T14:41:39.514Z,20.50
2022-12-16T14:44:39.047Z,20.77
2022-12-16T14:47:25.249Z,21.17
2022-12-16T14:50:12.985Z,20.87
2022-12-16T14:52:58.561Z,22.60
2022-12-16T14:55:50.992Z,23.93
2022-12-16T14:58:43.324Z,24.87
2022-12-16T15:01:37.494Z,24.23
2022-12-16T15:04:27.738Z,26.87
2022-12-16T15:07:17.875Z,22.80
2022-12-16T15:10:10.184Z,23.90
2022-12-16T15:12:58.814Z,30.13
2022-12-16T15:15:52.871Z,22.47
2022-12-16T15:18:47.387Z,27.03
2022-12-16T15:21:32.867Z,25.73
2022-12-16T15:24:21.603Z,26.50
2022-12-16T15:27:07.505Z,27.07
2022-12-16T15:29:55.278Z,25.60
2022-12-16T15:32:43.378Z,24.27
2022-12-16T15:35:52.705Z,23.40
2022-12-16T15:38:48.549Z,27.03
2022-12-16T15:41:45.375Z,27.30
2022-12-16T15:44:39.972Z,24.47
2022-12-16T15:47:51.361Z,26.90
2022-12-16T15:50:40.697Z,22.63
2022-12-16T15:54:11.563Z,27.73
2022-12-16T15:57:02.652Z,23.40
2022-12-16T15:59:50.828Z,24.57
2022-12-16T16:02:43.120Z,24.20
2022-12-16T16:05:49.235Z,23.93
2022-12-16T16:08:35.150Z,24.90
2022-12-16T16:11:20.498Z,26.17
2022-12-16T16:14:12.282Z,30.93
2022-12-16T16:16:59.681Z,27.00
2022-12-16T16:19:46.361Z,28.83
2022-12-16T16:22:35.071Z,25.67
2022-12-16T16:25:20.890Z,31.10
2022-12-16T16:28:06.505Z,24.90
2022-12-16T16:30:52.110Z,28.07
2022-12-16T16:33:37.724Z,30.07
2022-12-16T16:36:33.164Z,29.00
2022-12-16T16:39:19.158Z,32.20
2022-12-16T16:42:04.390Z,32.73
2022-12-16T16:44:50.073Z,35.97
2022-12-16T16:47:36.650Z,32.67
2022-12-16T16:50:25.497Z,29.93
2022-12-16T16:53:11.193Z,31.93
2022-12-16T16:56:07.149Z,28.13
2022-12-16T16:58:53.340Z,28.97
2022-12-16T17:01:38.817Z,32.43
2022-12-16T17:04:24.329Z,34.20
2022-12-16T17:07:13.265Z,32.60
2022-12-16T17:09:58.436Z,32.53
2022-12-16T17:12:49.234Z,36.93
2022-12-16T17:15:40.628Z,38.70
2022-12-16T17:18:26.553Z,35.80
2022-12-16T17:21:12.863Z,35.60
2022-12-16T17:23:59.041Z,36.77
2022-12-16T17:26:47.505Z,34.47
2022-12-16T17:29:44.232Z,36.70
2022-12-16T17:32:30.647Z,36.70
2022-12-16T17:35:16.790Z,38.53
2022-12-16T17:38:02.384Z,40.07
2022-12-16T17:40:48.142Z,40.27
2022-12-16T17:43:34.061Z,39.47
2022-12-16T17:46:25.912Z,39.37
2022-12-16T17:49:12.952Z,35.90
2022-12-16T17:51:58.495Z,38.00
2022-12-16T17:54:44.261Z,35.00
2022-12-16T17:57:30.360Z,35.30
2022-12-16T18:00:16.077Z,37.07
2022-12-16T18:03:01.906Z,38.20
2022-12-16T18:05:50.048Z,35.83
2022-12-16T18:08:35.543Z,40.20
2022-12-16T18:11:23.344Z,39.13
2022-12-16T18:14:08.673Z,40.30
2022-12-16T18:16:54.244Z,39.50
2022-12-16T18:19:42.810Z,36.33
2022-12-16T18:22:28.433Z,37.10
2022-12-16T18:25:16.132Z,42.00
2022-12-16T18:28:01.330Z,42.47
2022-12-16T18:30:46.886Z,39.73
2022-12-16T18:33:32.880Z,41.27
2022-12-16T18:36:18.451Z,41.63
2022-12-16T18:39:03.844Z,42.73
2022-12-16T18:41:49.384Z,42.60
2022-12-16T18:44:34.887Z,43.27
2022-12-16T18:47:20.332Z,43.47
2022-12-16T18:50:06.261Z,41.37
2022-12-16T18:52:51.961Z,40.93
2022-12-16T18:55:37.483Z,39.90
2022-12-16T19:01:30.364Z,41.57
2022-12-16T19:04:16.846Z,38.80
2022-12-16T19:07:02.523Z,42.30
2022-12-16T19:09:48.187Z,42.40
2022-12-16T19:12:37.888Z,43.57
2022-12-16T19:15:23.365Z,44.63
2022-12-16T19:18:08.778Z,48.47
2022-12-16T19:20:54.518Z,54.87
2022-12-16T19:23:42.629Z,46.87
2022-12-16T19:26:28.547Z,41.33
2022-12-16T19:29:14.140Z,45.33
2022-12-16T19:31:59.540Z,47.77
2022-12-16T19:34:45.155Z,52.30
2022-12-16T19:37:30.454Z,42.90
2022-12-16T19:40:16.039Z,43.93
2022-12-16T19:43:01.369Z,47.10
2022-12-16T19:45:52.890Z,47.33
2022-12-16T19:48:41.749Z,46.57
2022-12-16T19:51:27.379Z,45.43
2022-12-16T19:54:12.828Z,47.60
2022-12-16T19:56:58.411Z,48.67
2022-12-16T19:59:43.615Z,50.30
2022-12-16T20:02:30.218Z,46.47
2022-12-16T20:05:16.060Z,48.93
2022-12-16T20:08:01.568Z,50.37
2022-12-16T20:10:46.965Z,47.10
2022-12-16T20:13:33.124Z,47.17
2022-12-16T20:16:22.709Z,44.37
2022-12-16T20:19:08.100Z,47.33
2022-12-16T20:21:56.155Z,45.63
2022-12-16T20:24:58.960Z,46.47
2022-12-16T20:27:44.247Z,55.03
2022-12-16T20:30:47.401Z,53.43
2022-12-16T20:33:34.922Z,48.67
2022-12-16T20:36:22.795Z,48.37
2022-12-16T20:39:08.059Z,51.23
2022-12-16T20:41:56.172Z,52.43
2022-12-16T20:44:42.024Z,50.73
2022-12-16T20:47:29.383Z,55.73
2022-12-16T20:50:14.959Z,61.77
2022-12-16T20:53:00.443Z,64.73
2022-12-16T20:55:45.792Z,58.93
2022-12-16T20:58:39.389Z,52.27
2022-12-16T21:01:25.123Z,53.43
2022-12-16T21:04:13.379Z,48.00
2022-12-16T21:06:58.887Z,51.47
2022-12-16T21:09:46.475Z,51.20
2022-12-16T21:12:32.006Z,52.37
2022-12-16T21:15:17.721Z,52.63
2022-12-16T21:18:02.912Z,52.27
2022-12-16T21:20:48.563Z,47.83
2022-12-16T21:23:33.672Z,47.43
2022-12-16T21:26:19.546Z,50.30
2022-12-16T21:29:05.632Z,48.60
2022-12-16T21:31:51.214Z,50.23
2022-12-16T21:34:39.046Z,49.87
2022-12-16T21:37:24.657Z,47.33
2022-12-16T21:40:10.383Z,54.40
2022-12-16T21:42:56.216Z,54.77
2022-12-16T21:45:41.974Z,49.10
2022-12-16T21:48:29.863Z,53.13
2022-12-16T21:51:15.567Z,48.73
2022-12-16T21:57:09.658Z,48.83
2022-12-16T21:59:56.364Z,49.13
2022-12-16T22:02:42.100Z,53.37
2022-12-16T22:05:29.462Z,50.43
2022-12-16T22:08:29.500Z,53.93
2022-12-16T22:11:15.046Z,49.30
2022-12-16T22:14:00.539Z,47.73
2022-12-16T22:16:46.240Z,49.73
2022-12-16T22:19:31.318Z,55.70
2022-12-16T22:22:16.851Z,54.30
2022-12-16T22:25:02.387Z,47.93
2022-12-16T22:27:47.591Z,46.83
2022-12-16T22:30:32.938Z,52.13
2022-12-16T22:33:18.467Z,54.33
2022-12-16T22:36:07.054Z,56.23
2022-12-16T22:38:52.556Z,52.37
2022-12-16T22:41:37.697Z,57.47
2022-12-16T22:44:23.372Z,55.30
2022-12-16T22:47:08.714Z,53.97
2022-12-16T22:49:56.066Z,59.77
2022-12-16T22:52:41.581Z,59.23
2022-12-16T22:55:27.279Z,65.27
2022-12-16T22:58:13.267Z,61.53
2022-12-16T23:00:58.796Z,64.87
2022-12-16T23:03:44.717Z,60.53
2022-12-16T23:06:30.538Z,55.40
2022-12-16T23:09:16.116Z,58.73
2022-12-16T23:12:03.573Z,58.93
2022-12-16T23:14:49.075Z,64.77
2022-12-16T23:17:34.660Z,62.30
2022-12-16T23:20:21.777Z,58.90
2022-12-16T23:23:08.145Z,61.03
2022-12-16T23:25:53.881Z,58.50
2022-12-16T23:28:39.463Z,62.77
2022-12-16T23:31:25.178Z,58.87
2022-12-16T23:32:31.314Z,48.70
2022-12-16T23:34:10.510Z,55.27
2022-12-16T23:36:55.884Z,59.07
2022-12-16T23:39:43.670Z,58.33
2022-12-16T23:42:29.071Z,61.23
2022-12-16T23:45:17.474Z,61.00
2022-12-16T23:48:02.708Z,57.77
2022-12-16T23:50:48.507Z,58.10
2022-12-16T23:53:40.331Z,56.73
2022-12-16T23:56:26.913Z,58.77
2022-12-16T23:59:12.511Z,50.60
